sensor_id;sensor_type;location;lat;lon;timestamp;pressure;altitude;pressure_sealevel;temperature;humidity
21877;BME280;11103;43.788;23.710;2022-08-02T00:00:04;151750.88;;;21.19;92.99
21877;BME280;11103;43.788;23.710;2022-08-02T00:02:30;151762.50;;;21.23;93.63
21877;BME280;11103;43.788;23.710;2022-08-02T00:04:56;151771.53;;;21.27;94.06
21877;BME280;11103;43.788;23.710;2022-08-02T00:07:21;151746.97;;;21.17;94.22
21877;BME280;11103;43.788;23.710;2022-08-02T00:09:47;151766.38;;;21.25;94.87
21877;BME280;11103;43.788;23.710;2022-08-02T00:12:12;151780.59;;;21.30;94.96
21877;BME280;11103;43.788;23.710;2022-08-02T00:14:38;151783.16;;;21.31;95.64
21877;BME280;11103;43.788;23.710;2022-08-02T00:17:04;151779.28;;;21.30;95.54
21877;BME280;11103;43.788;23.710;2022-08-02T00:19:30;151752.19;;;21.19;96.08
21877;BME280;11103;43.788;23.710;2022-08-02T00:21:55;151754.72;;;21.20;97.11
21877;BME280;11103;43.788;23.710;2022-08-02T00:24:20;151734.06;;;21.12;97.45
21877;BME280;11103;43.788;23.710;2022-08-02T00:26:46;151704.38;;;21.01;98.71
21877;BME280;11103;43.788;23.710;2022-08-02T00:29:11;151749.59;;;21.18;99.25
21877;BME280;11103;43.788;23.710;2022-08-02T00:31:37;151715.97;;;21.05;100.00
21877;BME280;11103;43.788;23.710;2022-08-02T00:34:02;151715.97;;;21.05;100.00
21877;BME280;11103;43.788;23.710;2022-08-02T00:36:28;151717.28;;;21.06;100.00
21877;BME280;11103;43.788;23.710;2022-08-02T00:38:53;151701.78;;;21.00;100.00
21877;BME280;11103;43.788;23.710;2022-08-02T00:41:20;151656.56;;;20.82;100.00
21877;BME280;11103;43.788;23.710;2022-08-02T00:43:47;151697.88;;;20.98;100.00
21877;BME280;11103;43.788;23.710;2022-08-02T00:46:13;151690.16;;;20.95;100.00
21877;BME280;11103;43.788;23.710;2022-08-02T00:48:39;151659.16;;;20.83;100.00
21877;BME280;11103;43.788;23.710;2022-08-02T00:51:04;151682.41;;;20.92;100.00
21877;BME280;11103;43.788;23.710;2022-08-02T00:53:31;151672.06;;;20.88;100.00
21877;BME280;11103;43.788;23.710;2022-08-02T00:55:56;151656.56;;;20.82;100.00
21877;BME280;11103;43.788;23.710;2022-08-02T00:58:21;151644.97;;;20.77;100.00
21877;BME280;11103;43.788;23.710;2022-08-02T01:00:47;151646.25;;;20.78;100.00
21877;BME280;11103;43.788;23.710;2022-08-02T01:03:12;151607.53;;;20.63;100.00
21877;BME280;11103;43.788;23.710;2022-08-02T01:05:38;151611.41;;;20.64;100.00
21877;BME280;11103;43.788;23.710;2022-08-02T01:08:04;151576.56;;;20.51;100.00
21877;BME280;11103;43.788;23.710;2022-08-02T01:10:29;151579.16;;;20.52;100.00
21877;BME280;11103;43.788;23.710;2022-08-02T01:12:55;151576.56;;;20.51;100.00
21877;BME280;11103;43.788;23.710;2022-08-02T01:15:21;151535.28;;;20.35;100.00
21877;BME280;11103;43.788;23.710;2022-08-02T01:18:08;151521.09;;;20.29;100.00
21877;BME280;11103;43.788;23.710;2022-08-02T01:29:06;151509.50;;;20.25;100.00
21877;BME280;11103;43.788;23.710;2022-08-02T01:34:17;151487.50;;;20.16;100.00
21877;BME280;11103;43.788;23.710;2022-08-02T01:36:50;151484.91;;;20.15;100.00
21877;BME280;11103;43.788;23.710;2022-08-02T01:39:20;151450.06;;;20.01;100.00
21877;BME280;11103;43.788;23.710;2022-08-02T01:41:48;151477.16;;;20.12;100.00
21877;BME280;11103;43.788;23.710;2022-08-02T01:44:15;151441.03;;;19.98;100.00
21877;BME280;11103;43.788;23.710;2022-08-02T01:46:41;151459.13;;;20.05;100.00
21877;BME280;11103;43.788;23.710;2022-08-02T01:49:11;151450.06;;;20.01;100.00
21877;BME280;11103;43.788;23.710;2022-08-02T01:51:39;151447.47;;;20.00;100.00
21877;BME280;11103;43.788;23.710;2022-08-02T01:54:26;151429.44;;;19.93;100.00
21877;BME280;11103;43.788;23.710;2022-08-02T01:56:55;151404.94;;;19.84;100.00
21877;BME280;11103;43.788;23.710;2022-08-02T01:59:22;151393.31;;;19.79;100.00
21877;BME280;11103;43.788;23.710;2022-08-02T02:01:50;151389.47;;;19.78;100.00
21877;BME280;11103;43.788;23.710;2022-08-02T02:04:16;151395.91;;;19.80;100.00
21877;BME280;11103;43.788;23.710;2022-08-02T02:06:44;151385.56;;;19.76;100.00
21877;BME280;11103;43.788;23.710;2022-08-02T02:09:14;151390.75;;;19.78;100.00
21877;BME280;11103;43.788;23.710;2022-08-02T02:11:45;151380.41;;;19.74;100.00
21877;BME280;11103;43.788;23.710;2022-08-02T02:14:11;151363.63;;;19.68;100.00
21877;BME280;11103;43.788;23.710;2022-08-02T02:16:40;151362.38;;;19.67;100.00
21877;BME280;11103;43.788;23.710;2022-08-02T02:19:08;151346.91;;;19.61;100.00
21877;BME280;11103;43.788;23.710;2022-08-02T02:21:33;151346.91;;;19.61;100.00
21877;BME280;11103;43.788;23.710;2022-08-02T02:23:59;151319.81;;;19.50;100.00
21877;BME280;11103;43.788;23.710;2022-08-02T02:26:26;151336.56;;;19.57;100.00
21877;BME280;11103;43.788;23.710;2022-08-02T02:28:52;151277.22;;;19.34;100.00
21877;BME280;11103;43.788;23.710;2022-08-02T02:31:20;151278.50;;;19.34;100.00
21877;BME280;11103;43.788;23.710;2022-08-02T02:34:10;151282.34;;;19.36;100.00
21877;BME280;11103;43.788;23.710;2022-08-02T02:36:39;151279.81;;;19.35;100.00
21877;BME280;11103;43.788;23.710;2022-08-02T02:39:06;151251.44;;;19.24;100.00
21877;BME280;11103;43.788;23.710;2022-08-02T02:41:36;151228.22;;;19.15;100.00
21877;BME280;11103;43.788;23.710;2022-08-02T02:44:05;151241.09;;;19.20;100.00
21877;BME280;11103;43.788;23.710;2022-08-02T02:46:32;151219.19;;;19.11;100.00
21877;BME280;11103;43.788;23.710;2022-08-02T02:48:59;151189.56;;;18.99;100.00
21877;BME280;11103;43.788;23.710;2022-08-02T02:51:25;151214.03;;;19.09;100.00
21877;BME280;11103;43.788;23.710;2022-08-02T02:53:51;151179.25;;;18.95;100.00
21877;BME280;11103;43.788;23.710;2022-08-02T02:56:18;151205.00;;;19.06;100.00
21877;BME280;11103;43.788;23.710;2022-08-02T02:58:44;151114.78;;;18.70;100.00
21877;BME280;11103;43.788;23.710;2022-08-02T03:01:11;151176.66;;;18.94;100.00
21877;BME280;11103;43.788;23.710;2022-08-02T03:03:59;151134.16;;;18.78;100.00
21877;BME280;11103;43.788;23.710;2022-08-02T03:06:26;151135.41;;;18.78;100.00
21877;BME280;11103;43.788;23.710;2022-08-02T03:08:52;151122.53;;;18.73;100.00
21877;BME280;11103;43.788;23.710;2022-08-02T03:11:18;151122.53;;;18.73;100.00
21877;BME280;11103;43.788;23.710;2022-08-02T03:13:43;151132.84;;;18.77;100.00
21877;BME280;11103;43.788;23.710;2022-08-02T03:16:12;151154.78;;;18.86;100.00
21877;BME280;11103;43.788;23.710;2022-08-02T03:18:40;151150.88;;;18.84;100.00
21877;BME280;11103;43.788;23.710;2022-08-02T03:21:09;151101.91;;;18.65;100.00
21877;BME280;11103;43.788;23.710;2022-08-02T03:23:40;151134.16;;;18.78;100.00
21877;BME280;11103;43.788;23.710;2022-08-02T03:26:06;151071.00;;;18.53;100.00
21877;BME280;11103;43.788;23.710;2022-08-02T03:28:32;151019.41;;;18.33;100.00
21877;BME280;11103;43.788;23.710;2022-08-02T03:30:58;151132.84;;;18.77;100.00
21877;BME280;11103;43.788;23.710;2022-08-02T03:33:25;151094.16;;;18.62;100.00
21877;BME280;11103;43.788;23.710;2022-08-02T03:35:53;151132.84;;;18.77;100.00
21877;BME280;11103;43.788;23.710;2022-08-02T03:38:21;151130.25;;;18.76;100.00
21877;BME280;11103;43.788;23.710;2022-08-02T03:40:47;151071.00;;;18.53;100.00
21877;BME280;11103;43.788;23.710;2022-08-02T03:43:14;151118.69;;;18.72;100.00
21877;BME280;11103;43.788;23.710;2022-08-02T03:45:46;151127.66;;;18.75;100.00
21877;BME280;11103;43.788;23.710;2022-08-02T03:48:15;151128.97;;;18.76;100.00
21877;BME280;11103;43.788;23.710;2022-08-02T03:50:42;151139.28;;;18.80;100.00
21877;BME280;11103;43.788;23.710;2022-08-02T03:53:08;151147.03;;;18.83;100.00
21877;BME280;11103;43.788;23.710;2022-08-02T03:55:34;151148.28;;;18.83;100.00
21877;BME280;11103;43.788;23.710;2022-08-02T03:58:00;151166.34;;;18.90;100.00
21877;BME280;11103;43.788;23.710;2022-08-02T04:00:26;151162.47;;;18.89;100.00
21877;BME280;11103;43.788;23.710;2022-08-02T04:02:52;151174.09;;;18.93;100.00
21877;BME280;11103;43.788;23.710;2022-08-02T04:05:18;151174.09;;;18.93;100.00
21877;BME280;11103;43.788;23.710;2022-08-02T04:07:44;151186.97;;;18.98;100.00
21877;BME280;11103;43.788;23.710;2022-08-02T04:10:10;151205.00;;;19.06;100.00
21877;BME280;11103;43.788;23.710;2022-08-02T04:12:37;151171.50;;;18.92;100.00
21877;BME280;11103;43.788;23.710;2022-08-02T04:15:05;151205.00;;;19.06;100.00
21877;BME280;11103;43.788;23.710;2022-08-02T04:17:35;151192.13;;;19.00;100.00
21877;BME280;11103;43.788;23.710;2022-08-02T04:20:09;151217.88;;;19.11;100.00
21877;BME280;11103;43.788;23.710;2022-08-02T04:22:46;151248.84;;;19.23;100.00
21877;BME280;11103;43.788;23.710;2022-08-02T04:25:15;151233.38;;;19.17;100.00
21877;BME280;11103;43.788;23.710;2022-08-02T04:27:42;151275.91;;;19.33;100.00
21877;BME280;11103;43.788;23.710;2022-08-02T04:30:08;151264.34;;;19.29;100.00
21877;BME280;11103;43.788;23.710;2022-08-02T04:32:34;151263.03;;;19.28;100.00
21877;BME280;11103;43.788;23.710;2022-08-02T04:34:59;151300.50;;;19.43;100.00
21877;BME280;11103;43.788;23.710;2022-08-02T04:37:26;151312.06;;;19.47;100.00
21877;BME280;11103;43.788;23.710;2022-08-02T04:39:51;151322.38;;;19.51;100.00
21877;BME280;11103;43.788;23.710;2022-08-02T04:42:23;151301.75;;;19.43;100.00
21877;BME280;11103;43.788;23.710;2022-08-02T04:44:50;151332.72;;;19.55;100.00
21877;BME280;11103;43.788;23.710;2022-08-02T04:47:17;151334.00;;;19.56;100.00
21877;BME280;11103;43.788;23.710;2022-08-02T04:49:42;151336.56;;;19.57;100.00
21877;BME280;11103;43.788;23.710;2022-08-02T04:52:08;151330.09;;;19.54;100.00
21877;BME280;11103;43.788;23.710;2022-08-02T04:54:33;151377.81;;;19.73;100.00
21877;BME280;11103;43.788;23.710;2022-08-02T04:56:58;151380.41;;;19.74;100.00
21877;BME280;11103;43.788;23.710;2022-08-02T04:59:24;151375.28;;;19.72;100.00
21877;BME280;11103;43.788;23.710;2022-08-02T05:01:49;151403.66;;;19.83;100.00
21877;BME280;11103;43.788;23.710;2022-08-02T05:04:15;151408.78;;;19.85;100.00
21877;BME280;11103;43.788;23.710;2022-08-02T05:06:40;151442.31;;;19.98;100.00
21877;BME280;11103;43.788;23.710;2022-08-02T05:09:06;151460.41;;;20.05;100.00
21877;BME280;11103;43.788;23.710;2022-08-02T05:11:31;151532.69;;;20.34;100.00
21877;BME280;11103;43.788;23.710;2022-08-02T05:13:57;151651.41;;;20.80;100.00
21877;BME280;11103;43.788;23.710;2022-08-02T05:16:23;151891.66;;;21.74;97.43
21877;BME280;11103;43.788;23.710;2022-08-02T05:18:50;152097.13;;;22.54;91.08
21877;BME280;11103;43.788;23.710;2022-08-02T05:21:16;152270.41;;;23.22;85.51
21877;BME280;11103;43.788;23.710;2022-08-02T05:23:41;152417.94;;;23.79;79.16
21877;BME280;11103;43.788;23.710;2022-08-02T05:26:07;152517.63;;;24.18;76.92
21877;BME280;11103;43.788;23.710;2022-08-02T05:28:33;152579.75;;;24.42;74.45
21877;BME280;11103;43.788;23.710;2022-08-02T05:30:58;152659.97;;;24.73;72.17
21877;BME280;11103;43.788;23.710;2022-08-02T05:33:24;152700.19;;;24.89;68.74
21877;BME280;11103;43.788;23.710;2022-08-02T05:35:49;152821.91;;;25.36;68.35
21877;BME280;11103;43.788;23.710;2022-08-02T05:38:15;152999.47;;;26.06;65.99
21877;BME280;11103;43.788;23.710;2022-08-02T05:40:40;153103.19;;;26.46;63.64
21877;BME280;11103;43.788;23.710;2022-08-02T05:43:12;153253.63;;;27.04;59.77
21877;BME280;11103;43.788;23.710;2022-08-02T05:45:38;153184.91;;;26.78;61.61
21877;BME280;11103;43.788;23.710;2022-08-02T05:48:04;153140.81;;;26.60;62.12
21877;BME280;11103;43.788;23.710;2022-08-02T05:50:30;153055.25;;;26.27;64.08
21877;BME280;11103;43.788;23.710;2022-08-02T05:53:09;152954.09;;;25.88;66.06
21877;BME280;11103;43.788;23.710;2022-08-02T05:55:46;152863.41;;;25.53;67.76
21877;BME280;11103;43.788;23.710;2022-08-02T05:58:42;152724.78;;;24.99;69.93
21877;BME280;11103;43.788;23.710;2022-08-02T06:01:12;152691.13;;;24.85;72.52
21877;BME280;11103;43.788;23.710;2022-08-02T06:03:49;152669.06;;;24.77;73.31
21877;BME280;11103;43.788;23.710;2022-08-02T06:06:19;152661.28;;;24.74;74.08
21877;BME280;11103;43.788;23.710;2022-08-02T06:08:50;152648.34;;;24.69;73.45
21877;BME280;11103;43.788;23.710;2022-08-02T06:11:19;152631.50;;;24.62;74.32
21877;BME280;11103;43.788;23.710;2022-08-02T06:13:46;152623.78;;;24.59;72.60
21877;BME280;11103;43.788;23.710;2022-08-02T06:16:11;152597.84;;;24.49;72.98
21877;BME280;11103;43.788;23.710;2022-08-02T06:18:40;152590.06;;;24.46;71.21
21877;BME280;11103;43.788;23.710;2022-08-02T06:21:05;152621.16;;;24.58;72.09
21877;BME280;11103;43.788;23.710;2022-08-02T06:23:33;152583.59;;;24.44;70.17
21877;BME280;11103;43.788;23.710;2022-08-02T06:26:04;152552.56;;;24.32;72.27
21877;BME280;11103;43.788;23.710;2022-08-02T06:28:31;152600.44;;;24.50;73.00
21877;BME280;11103;43.788;23.710;2022-08-02T06:30:57;152601.75;;;24.51;72.41
21877;BME280;11103;43.788;23.710;2022-08-02T06:33:23;152635.41;;;24.64;72.11
21877;BME280;11103;43.788;23.710;2022-08-02T06:36:15;152621.16;;;24.58;72.34
21877;BME280;11103;43.788;23.710;2022-08-02T06:38:43;152608.22;;;24.53;69.46
21877;BME280;11103;43.788;23.710;2022-08-02T06:41:14;152645.72;;;24.68;72.04
21877;BME280;11103;43.788;23.710;2022-08-02T06:46:19;152700.19;;;24.89;70.14
21877;BME280;11103;43.788;23.710;2022-08-02T06:48:45;152737.72;;;25.04;69.95
21877;BME280;11103;43.788;23.710;2022-08-02T06:51:11;152748.09;;;25.08;70.20
21877;BME280;11103;43.788;23.710;2022-08-02T06:53:37;152714.44;;;24.95;70.17
21877;BME280;11103;43.788;23.710;2022-08-02T06:56:03;152732.56;;;25.02;67.28
21877;BME280;11103;43.788;23.710;2022-08-02T06:58:28;152739.03;;;25.04;67.84
21877;BME280;11103;43.788;23.710;2022-08-02T07:00:54;152729.94;;;25.01;68.21
21877;BME280;11103;43.788;23.710;2022-08-02T07:03:19;152650.94;;;24.70;70.32
21877;BME280;11103;43.788;23.710;2022-08-02T07:05:45;152706.66;;;24.92;69.31
21877;BME280;11103;43.788;23.710;2022-08-02T07:08:16;152755.88;;;25.11;70.16
21877;BME280;11103;43.788;23.710;2022-08-02T07:10:42;152794.72;;;25.26;68.54
21877;BME280;11103;43.788;23.710;2022-08-02T07:13:08;152797.31;;;25.27;68.16
21877;BME280;11103;43.788;23.710;2022-08-02T07:15:33;152805.09;;;25.30;68.13
21877;BME280;11103;43.788;23.710;2022-08-02T07:17:59;152858.22;;;25.51;67.00
21877;BME280;11103;43.788;23.710;2022-08-02T07:20:24;152838.75;;;25.43;66.88
21877;BME280;11103;43.788;23.710;2022-08-02T07:22:50;152860.84;;;25.52;66.39
21877;BME280;11103;43.788;23.710;2022-08-02T07:25:15;152877.66;;;25.58;67.35
21877;BME280;11103;43.788;23.710;2022-08-02T07:27:41;152871.19;;;25.56;66.79
21877;BME280;11103;43.788;23.710;2022-08-02T07:30:07;152913.94;;;25.72;65.75
21877;BME280;11103;43.788;23.710;2022-08-02T07:32:32;152945.06;;;25.84;65.89
21877;BME280;11103;43.788;23.710;2022-08-02T07:34:59;152952.78;;;25.87;65.33
21877;BME280;11103;43.788;23.710;2022-08-02T07:37:30;152938.59;;;25.82;65.37
21877;BME280;11103;43.788;23.710;2022-08-02T07:39:56;152977.44;;;25.97;65.32
21877;BME280;11103;43.788;23.710;2022-08-02T07:42:22;152958.00;;;25.89;64.24
21877;BME280;11103;43.788;23.710;2022-08-02T07:44:49;152961.88;;;25.91;64.62
21877;BME280;11103;43.788;23.710;2022-08-02T07:47:14;152991.69;;;26.02;64.66
21877;BME280;11103;43.788;23.710;2022-08-02T07:49:40;152989.06;;;26.01;64.55
21877;BME280;11103;43.788;23.710;2022-08-02T07:52:05;152978.72;;;25.97;66.03
21877;BME280;11103;43.788;23.710;2022-08-02T07:54:31;152999.47;;;26.06;66.25
21877;BME280;11103;43.788;23.710;2022-08-02T07:56:56;153060.41;;;26.29;63.83
21877;BME280;11103;43.788;23.710;2022-08-02T07:59:22;153103.19;;;26.46;63.52
21877;BME280;11103;43.788;23.710;2022-08-02T08:01:48;153113.53;;;26.50;63.54
21877;BME280;11103;43.788;23.710;2022-08-02T08:04:15;153126.53;;;26.55;64.04
21877;BME280;11103;43.788;23.710;2022-08-02T08:06:41;153123.94;;;26.54;62.29
21877;BME280;11103;43.788;23.710;2022-08-02T08:09:08;153103.19;;;26.46;63.90
21877;BME280;11103;43.788;23.710;2022-08-02T08:11:34;153134.28;;;26.58;64.61
21877;BME280;11103;43.788;23.710;2022-08-02T08:13:59;153165.41;;;26.70;64.17
21877;BME280;11103;43.788;23.710;2022-08-02T08:16:25;153204.34;;;26.85;64.19
21877;BME280;11103;43.788;23.710;2022-08-02T08:18:54;153234.19;;;26.97;62.49
21877;BME280;11103;43.788;23.710;2022-08-02T08:21:20;153264.03;;;27.08;62.11
21877;BME280;11103;43.788;23.710;2022-08-02T08:23:45;153297.72;;;27.22;61.61
21877;BME280;11103;43.788;23.710;2022-08-02T08:26:11;153288.63;;;27.18;60.75
21877;BME280;11103;43.788;23.710;2022-08-02T08:28:36;153315.91;;;27.29;62.97
21877;BME280;11103;43.788;23.710;2022-08-02T08:31:01;153324.97;;;27.32;62.29
21877;BME280;11103;43.788;23.710;2022-08-02T08:33:27;153371.75;;;27.50;63.40
21877;BME280;11103;43.788;23.710;2022-08-02T08:35:53;153383.41;;;27.55;63.87
21877;BME280;11103;43.788;23.710;2022-08-02T08:38:19;153385.97;;;27.56;59.96
21877;BME280;11103;43.788;23.710;2022-08-02T08:40:47;153413.25;;;27.66;59.62
21877;BME280;11103;43.788;23.710;2022-08-02T08:43:13;153449.53;;;27.81;58.84
21877;BME280;11103;43.788;23.710;2022-08-02T08:45:42;153476.78;;;27.91;58.97
21877;BME280;11103;43.788;23.710;2022-08-02T08:48:12;153474.22;;;27.90;58.05
21877;BME280;11103;43.788;23.710;2022-08-02T08:50:45;153465.13;;;27.87;59.46
21877;BME280;11103;43.788;23.710;2022-08-02T08:53:13;153418.44;;;27.68;59.60
21877;BME280;11103;43.788;23.710;2022-08-02T08:55:39;153440.50;;;27.77;57.55
21877;BME280;11103;43.788;23.710;2022-08-02T08:58:05;153456.03;;;27.83;61.28
21877;BME280;11103;43.788;23.710;2022-08-02T09:00:33;153457.34;;;27.84;60.46
21877;BME280;11103;43.788;23.710;2022-08-02T09:03:03;153456.03;;;27.83;61.02
21877;BME280;11103;43.788;23.710;2022-08-02T09:05:29;153497.59;;;27.99;58.76
21877;BME280;11103;43.788;23.710;2022-08-02T09:07:55;153531.38;;;28.12;63.22
21877;BME280;11103;43.788;23.710;2022-08-02T09:10:49;153588.50;;;28.34;64.45
21877;BME280;11103;43.788;23.710;2022-08-02T09:13:17;153652.06;;;28.59;56.75
21877;BME280;11103;43.788;23.710;2022-08-02T09:15:52;153665.13;;;28.64;57.13
21877;BME280;11103;43.788;23.710;2022-08-02T09:18:17;153693.69;;;28.75;60.19
21877;BME280;11103;43.788;23.710;2022-08-02T09:20:54;153748.22;;;28.97;57.09
21877;BME280;11103;43.788;23.710;2022-08-02T09:23:24;153765.09;;;29.03;58.21
21877;BME280;11103;43.788;23.710;2022-08-02T09:25:59;153785.84;;;29.11;66.57
21877;BME280;11103;43.788;23.710;2022-08-02T09:28:29;153796.28;;;29.15;65.00
21877;BME280;11103;43.788;23.710;2022-08-02T09:31:24;153802.75;;;29.18;58.10
21877;BME280;11103;43.788;23.710;2022-08-02T09:33:55;153811.91;;;29.21;54.12
21877;BME280;11103;43.788;23.710;2022-08-02T09:36:21;153852.16;;;29.37;54.28
21877;BME280;11103;43.788;23.710;2022-08-02T09:38:58;153872.97;;;29.45;53.44
21877;BME280;11103;43.788;23.710;2022-08-02T09:41:30;153913.22;;;29.61;53.63
21877;BME280;11103;43.788;23.710;2022-08-02T09:43:56;153936.63;;;29.70;52.19
21877;BME280;11103;43.788;23.710;2022-08-02T09:46:25;153918.41;;;29.63;47.58
21877;BME280;11103;43.788;23.710;2022-08-02T09:53:55;153924.88;;;29.65;45.18
21877;BME280;11103;43.788;23.710;2022-08-02T09:56:22;153939.19;;;29.71;45.62
21877;BME280;11103;43.788;23.710;2022-08-02T09:58:48;153965.25;;;29.81;45.25
21877;BME280;11103;43.788;23.710;2022-08-02T10:01:15;153989.91;;;29.90;49.25
21877;BME280;11103;43.788;23.710;2022-08-02T10:03:58;154043.22;;;30.11;50.60
21877;BME280;11103;43.788;23.710;2022-08-02T10:06:24;154022.44;;;30.03;55.32
21877;BME280;11103;43.788;23.710;2022-08-02T10:08:50;154078.31;;;30.25;49.79
21877;BME280;11103;43.788;23.710;2022-08-02T10:11:19;154129.03;;;30.44;49.53
21877;BME280;11103;43.788;23.710;2022-08-02T10:13:45;154122.53;;;30.42;49.38
21877;BME280;11103;43.788;23.710;2022-08-02T10:16:11;154182.34;;;30.65;55.86
21877;BME280;11103;43.788;23.710;2022-08-02T10:18:37;154194.03;;;30.70;48.34
21877;BME280;11103;43.788;23.710;2022-08-02T10:21:15;154218.75;;;30.79;46.85
21877;BME280;11103;43.788;23.710;2022-08-02T10:23:45;154217.47;;;30.79;49.60
21877;BME280;11103;43.788;23.710;2022-08-02T10:26:14;154213.53;;;30.77;49.27
21877;BME280;11103;43.788;23.710;2022-08-02T10:28:41;154227.84;;;30.83;49.56
21877;BME280;11103;43.788;23.710;2022-08-02T10:31:09;154197.97;;;30.71;43.18
21877;BME280;11103;43.788;23.710;2022-08-02T10:33:37;154212.22;;;30.77;52.99
21877;BME280;11103;43.788;23.710;2022-08-02T10:36:04;154238.25;;;30.87;45.20
21877;BME280;11103;43.788;23.710;2022-08-02T10:38:31;154261.69;;;30.96;56.37
21877;BME280;11103;43.788;23.710;2022-08-02T10:40:58;154276.00;;;31.01;44.58
21877;BME280;11103;43.788;23.710;2022-08-02T10:46:33;154370.97;;;31.38;45.47
21877;BME280;11103;43.788;23.710;2022-08-02T10:49:21;154364.47;;;31.36;46.18
21877;BME280;11103;43.788;23.710;2022-08-02T10:54:32;154381.34;;;31.42;45.50
21877;BME280;11103;43.788;23.710;2022-08-02T10:56:59;154369.66;;;31.38;42.29
21877;BME280;11103;43.788;23.710;2022-08-02T10:59:30;154331.91;;;31.23;42.91
21877;BME280;11103;43.788;23.710;2022-08-02T11:01:58;154246.06;;;30.90;39.97
21877;BME280;11103;43.788;23.710;2022-08-02T11:04:32;154281.22;;;31.03;38.09
21877;BME280;11103;43.788;23.710;2022-08-02T11:07:31;154295.53;;;31.09;40.42
21877;BME280;11103;43.788;23.710;2022-08-02T11:09:57;154339.72;;;31.26;45.05
21877;BME280;11103;43.788;23.710;2022-08-02T11:12:24;154436.06;;;31.63;44.35
21877;BME280;11103;43.788;23.710;2022-08-02T11:15:03;154482.88;;;31.81;44.35
21877;BME280;11103;43.788;23.710;2022-08-02T11:17:52;154459.44;;;31.72;42.10
21877;BME280;11103;43.788;23.710;2022-08-02T11:20:20;154433.44;;;31.62;44.18
21877;BME280;11103;43.788;23.710;2022-08-02T11:22:48;154438.63;;;31.64;43.77
21877;BME280;11103;43.788;23.710;2022-08-02T11:30:13;154542.75;;;32.05;37.42
21877;BME280;11103;43.788;23.710;2022-08-02T11:32:40;154605.22;;;32.29;41.10
21877;BME280;11103;43.788;23.710;2022-08-02T11:35:06;154680.81;;;32.58;42.92
21877;BME280;11103;43.788;23.710;2022-08-02T11:37:38;154673.00;;;32.55;45.21
21877;BME280;11103;43.788;23.710;2022-08-02T11:40:09;154656.00;;;32.49;41.35
21877;BME280;11103;43.788;23.710;2022-08-02T11:42:37;154702.94;;;32.67;40.21
21877;BME280;11103;43.788;23.710;2022-08-02T11:45:05;154744.59;;;32.83;42.27
21877;BME280;11103;43.788;23.710;2022-08-02T11:47:31;154658.63;;;32.50;35.36
21877;BME280;11103;43.788;23.710;2022-08-02T11:50:04;154631.28;;;32.39;44.61
21877;BME280;11103;43.788;23.710;2022-08-02T11:52:34;154708.16;;;32.69;45.33
21877;BME280;11103;43.788;23.710;2022-08-02T11:55:00;154753.69;;;32.86;52.94
21877;BME280;11103;43.788;23.710;2022-08-02T11:57:26;154786.25;;;32.99;42.63
21877;BME280;11103;43.788;23.710;2022-08-02T11:59:52;154825.34;;;33.14;41.79
21877;BME280;11103;43.788;23.710;2022-08-02T12:02:27;154804.53;;;33.06;38.92
21877;BME280;11103;43.788;23.710;2022-08-02T12:04:55;154857.91;;;33.27;46.63
21877;BME280;11103;43.788;23.710;2022-08-02T12:07:39;154889.19;;;33.39;38.96
21877;BME280;11103;43.788;23.710;2022-08-02T12:10:10;154859.22;;;33.27;43.97
21877;BME280;11103;43.788;23.710;2022-08-02T12:12:53;154911.31;;;33.47;44.04
21877;BME280;11103;43.788;23.710;2022-08-02T12:15:34;154911.31;;;33.47;44.22
21877;BME280;11103;43.788;23.710;2022-08-02T12:18:01;154925.66;;;33.53;49.82
21877;BME280;11103;43.788;23.710;2022-08-02T12:20:45;154863.16;;;33.29;38.52
21877;BME280;11103;43.788;23.710;2022-08-02T12:23:10;154943.91;;;33.60;40.72
21877;BME280;11103;43.788;23.710;2022-08-02T12:25:36;154977.78;;;33.73;39.49
21877;BME280;11103;43.788;23.710;2022-08-02T12:28:16;154992.13;;;33.79;40.95
21877;BME280;11103;43.788;23.710;2022-08-02T12:33:15;155139.41;;;34.36;41.91
21877;BME280;11103;43.788;23.710;2022-08-02T12:35:40;155230.69;;;34.71;37.00
21877;BME280;11103;43.788;23.710;2022-08-02T12:38:10;155324.63;;;35.07;37.42
21877;BME280;11103;43.788;23.710;2022-08-02T12:40:36;155362.47;;;35.22;34.83
21877;BME280;11103;43.788;23.710;2022-08-02T12:43:04;155387.22;;;35.32;35.17
21877;BME280;11103;43.788;23.710;2022-08-02T12:45:49;155409.38;;;35.40;35.61
21877;BME280;11103;43.788;23.710;2022-08-02T12:48:16;155440.72;;;35.52;33.86
21877;BME280;11103;43.788;23.710;2022-08-02T12:50:54;155387.22;;;35.32;35.47
21877;BME280;11103;43.788;23.710;2022-08-02T12:53:20;155431.56;;;35.49;46.25
21877;BME280;11103;43.788;23.710;2022-08-02T12:55:51;155473.34;;;35.65;36.55
21877;BME280;11103;43.788;23.710;2022-08-02T12:58:17;155560.72;;;35.99;40.30
21877;BME280;11103;43.788;23.710;2022-08-02T13:00:53;155558.13;;;35.98;37.25
21877;BME280;11103;43.788;23.710;2022-08-02T13:03:19;155590.78;;;36.10;41.29
21877;BME280;11103;43.788;23.710;2022-08-02T13:05:45;155666.47;;;36.39;40.09
21877;BME280;11103;43.788;23.710;2022-08-02T13:08:10;155768.31;;;36.79;35.47
21877;BME280;11103;43.788;23.710;2022-08-02T13:10:36;155756.59;;;36.74;33.02
21877;BME280;11103;43.788;23.710;2022-08-02T13:13:01;155601.25;;;36.14;31.37